Plevna, Montana
Current Conditions -  °F | °C
As of 9:51 AM on Friday 31 Oct 2014 (Local Time) from KBHK Reporting Station
Overcast Overcast  
Wind Chill: 21°   Ceiling: 700
Heat Index: 34°   Visibility: 10mi
Dew Point: 29°   Wind: 29mph
Humidity: 82%   Direction: 140°SE
Pressure: 30.17"   Gusts: 44mph
Location:  46.42°N, 104.52°W
Report Text: KBHK 311551Z AUTO 14025G38KT 10SM OVC007 01/M02 A3017 RMK AO2 PK WND 14041/1536 SLP240 T00111017
Loading
Personal Weather Stations






























Interactive Weather Map New forecast layout! Learn more

10-Day Weather Forecast

Advertisements
Track Severe Weather on mobile